sensor_id;sensor_type;location;lat;lon;timestamp;P1;durP1;ratioP1;P2;durP2;ratioP2
47381;SDS011;33128;51.580;5.170;2023-04-09T00:01:20;26.67;;;24.48;;
47381;SDS011;33128;51.580;5.170;2023-04-09T00:03:46;26.80;;;24.60;;
47381;SDS011;33128;51.580;5.170;2023-04-09T00:06:11;28.00;;;25.17;;
47381;SDS011;33128;51.580;5.170;2023-04-09T00:08:37;28.83;;;26.00;;
47381;SDS011;33128;51.580;5.170;2023-04-09T00:11:03;26.83;;;24.67;;
47381;SDS011;33128;51.580;5.170;2023-04-09T00:13:29;25.92;;;23.92;;
47381;SDS011;33128;51.580;5.170;2023-04-09T00:16:01;26.40;;;24.40;;
47381;SDS011;33128;51.580;5.170;2023-04-09T00:18:26;27.50;;;25.00;;
47381;SDS011;33128;51.580;5.170;2023-04-09T00:20:52;28.13;;;25.73;;
47381;SDS011;33128;51.580;5.170;2023-04-09T00:23:17;27.52;;;24.83;;
47381;SDS011;33128;51.580;5.170;2023-04-09T00:25:46;26.10;;;24.05;;
47381;SDS011;33128;51.580;5.170;2023-04-09T00:28:12;27.40;;;25.15;;
47381;SDS011;33128;51.580;5.170;2023-04-09T00:30:41;28.05;;;25.20;;
47381;SDS011;33128;51.580;5.170;2023-04-09T00:33:06;27.52;;;24.83;;
47381;SDS011;33128;51.580;5.170;2023-04-09T00:35:32;32.53;;;29.02;;
47381;SDS011;33128;51.580;5.170;2023-04-09T00:37:57;30.75;;;27.67;;
47381;SDS011;33128;51.580;5.170;2023-04-09T00:40:26;30.48;;;27.70;;
47381;SDS011;33128;51.580;5.170;2023-04-09T00:42:51;30.55;;;27.55;;
47381;SDS011;33128;51.580;5.170;2023-04-09T00:45:17;30.50;;;27.33;;
47381;SDS011;33128;51.580;5.170;2023-04-09T00:47:43;29.33;;;26.95;;
47381;SDS011;33128;51.580;5.170;2023-04-09T00:50:10;29.92;;;27.17;;
47381;SDS011;33128;51.580;5.170;2023-04-09T00:52:35;30.73;;;27.75;;
47381;SDS011;33128;51.580;5.170;2023-04-09T00:55:02;30.05;;;26.55;;
47381;SDS011;33128;51.580;5.170;2023-04-09T00:57:29;29.08;;;26.55;;
47381;SDS011;33128;51.580;5.170;2023-04-09T00:59:55;29.98;;;27.30;;
47381;SDS011;33128;51.580;5.170;2023-04-09T01:02:20;31.98;;;28.67;;
47381;SDS011;33128;51.580;5.170;2023-04-09T01:04:46;33.65;;;28.48;;
47381;SDS011;33128;51.580;5.170;2023-04-09T01:10:12;36.17;;;31.10;;
47381;SDS011;33128;51.580;5.170;2023-04-09T01:12:53;41.42;;;30.30;;
47381;SDS011;33128;51.580;5.170;2023-04-09T01:15:32;32.55;;;29.17;;
47381;SDS011;33128;51.580;5.170;2023-04-09T01:18:04;35.25;;;30.08;;
47381;SDS011;33128;51.580;5.170;2023-04-09T01:20:38;33.28;;;29.67;;
47381;SDS011;33128;51.580;5.170;2023-04-09T01:28:21;32.85;;;29.50;;
47381;SDS011;33128;51.580;5.170;2023-04-09T01:31:10;32.30;;;29.17;;
47381;SDS011;33128;51.580;5.170;2023-04-09T01:33:39;34.20;;;30.67;;
47381;SDS011;33128;51.580;5.170;2023-04-09T01:36:06;35.50;;;29.98;;
47381;SDS011;33128;51.580;5.170;2023-04-09T01:38:34;33.30;;;30.02;;
47381;SDS011;33128;51.580;5.170;2023-04-09T01:41:00;33.78;;;30.23;;
47381;SDS011;33128;51.580;5.170;2023-04-09T01:43:29;33.25;;;29.88;;
47381;SDS011;33128;51.580;5.170;2023-04-09T01:45:57;29.77;;;26.77;;
47381;SDS011;33128;51.580;5.170;2023-04-09T01:48:25;30.77;;;27.98;;
47381;SDS011;33128;51.580;5.170;2023-04-09T01:50:51;30.08;;;27.27;;
47381;SDS011;33128;51.580;5.170;2023-04-09T01:53:17;29.38;;;26.80;;
47381;SDS011;33128;51.580;5.170;2023-04-09T01:55:43;30.35;;;27.25;;
47381;SDS011;33128;51.580;5.170;2023-04-09T01:58:09;29.48;;;26.52;;
47381;SDS011;33128;51.580;5.170;2023-04-09T02:00:37;28.23;;;25.67;;
47381;SDS011;33128;51.580;5.170;2023-04-09T02:03:05;29.25;;;26.52;;
47381;SDS011;33128;51.580;5.170;2023-04-09T02:06:13;32.25;;;28.55;;
47381;SDS011;33128;51.580;5.170;2023-04-09T02:08:36;31.38;;;28.50;;
47381;SDS011;33128;51.580;5.170;2023-04-09T02:11:03;30.25;;;27.52;;
47381;SDS011;33128;51.580;5.170;2023-04-09T02:13:34;29.30;;;26.70;;
47381;SDS011;33128;51.580;5.170;2023-04-09T02:16:01;29.88;;;27.00;;
47381;SDS011;33128;51.580;5.170;2023-04-09T02:18:28;29.50;;;26.90;;
47381;SDS011;33128;51.580;5.170;2023-04-09T02:20:55;29.85;;;27.25;;
47381;SDS011;33128;51.580;5.170;2023-04-09T02:23:21;31.00;;;28.25;;
47381;SDS011;33128;51.580;5.170;2023-04-09T02:25:47;30.17;;;27.25;;
47381;SDS011;33128;51.580;5.170;2023-04-09T02:28:14;30.92;;;28.00;;
47381;SDS011;33128;51.580;5.170;2023-04-09T02:30:40;30.42;;;27.50;;
47381;SDS011;33128;51.580;5.170;2023-04-09T02:33:06;30.42;;;27.80;;
47381;SDS011;33128;51.580;5.170;2023-04-09T02:35:32;32.38;;;28.98;;
47381;SDS011;33128;51.580;5.170;2023-04-09T02:37:58;29.15;;;26.63;;
47381;SDS011;33128;51.580;5.170;2023-04-09T02:40:23;30.05;;;27.10;;
47381;SDS011;33128;51.580;5.170;2023-04-09T02:42:50;31.25;;;28.25;;
47381;SDS011;33128;51.580;5.170;2023-04-09T02:45:17;32.17;;;29.00;;
47381;SDS011;33128;51.580;5.170;2023-04-09T02:47:42;31.60;;;27.65;;
47381;SDS011;33128;51.580;5.170;2023-04-09T02:50:08;30.90;;;28.05;;
47381;SDS011;33128;51.580;5.170;2023-04-09T02:52:35;33.00;;;30.08;;
47381;SDS011;33128;51.580;5.170;2023-04-09T02:55:01;31.27;;;28.30;;
47381;SDS011;33128;51.580;5.170;2023-04-09T02:57:27;31.58;;;28.50;;
47381;SDS011;33128;51.580;5.170;2023-04-09T02:59:52;30.60;;;27.63;;
47381;SDS011;33128;51.580;5.170;2023-04-09T03:02:19;29.73;;;27.00;;
47381;SDS011;33128;51.580;5.170;2023-04-09T03:04:45;29.80;;;27.08;;
47381;SDS011;33128;51.580;5.170;2023-04-09T03:07:11;32.28;;;29.23;;
47381;SDS011;33128;51.580;5.170;2023-04-09T03:09:36;33.35;;;29.88;;
47381;SDS011;33128;51.580;5.170;2023-04-09T03:12:02;31.80;;;28.58;;
47381;SDS011;33128;51.580;5.170;2023-04-09T03:14:27;32.47;;;28.98;;
47381;SDS011;33128;51.580;5.170;2023-04-09T03:16:53;31.13;;;28.02;;
47381;SDS011;33128;51.580;5.170;2023-04-09T03:19:19;29.33;;;26.52;;
47381;SDS011;33128;51.580;5.170;2023-04-09T03:21:45;32.15;;;29.10;;
47381;SDS011;33128;51.580;5.170;2023-04-09T03:24:13;31.23;;;28.10;;
47381;SDS011;33128;51.580;5.170;2023-04-09T03:26:38;30.33;;;27.25;;
47381;SDS011;33128;51.580;5.170;2023-04-09T03:29:04;31.58;;;28.52;;
47381;SDS011;33128;51.580;5.170;2023-04-09T03:31:30;32.42;;;29.05;;
47381;SDS011;33128;51.580;5.170;2023-04-09T03:33:57;31.60;;;28.48;;
47381;SDS011;33128;51.580;5.170;2023-04-09T03:36:22;31.95;;;28.25;;
47381;SDS011;33128;51.580;5.170;2023-04-09T03:38:48;33.20;;;29.80;;
47381;SDS011;33128;51.580;5.170;2023-04-09T03:41:17;31.50;;;28.48;;
47381;SDS011;33128;51.580;5.170;2023-04-09T03:43:42;31.55;;;28.20;;
47381;SDS011;33128;51.580;5.170;2023-04-09T03:46:12;35.17;;;29.33;;
47381;SDS011;33128;51.580;5.170;2023-04-09T03:48:38;32.28;;;29.10;;
47381;SDS011;33128;51.580;5.170;2023-04-09T03:51:03;35.38;;;30.20;;
47381;SDS011;33128;51.580;5.170;2023-04-09T03:53:29;31.02;;;28.23;;
47381;SDS011;33128;51.580;5.170;2023-04-09T03:55:55;32.53;;;29.25;;
47381;SDS011;33128;51.580;5.170;2023-04-09T03:58:20;34.17;;;30.55;;
47381;SDS011;33128;51.580;5.170;2023-04-09T04:00:46;34.85;;;29.38;;
47381;SDS011;33128;51.580;5.170;2023-04-09T04:03:12;32.65;;;29.35;;
47381;SDS011;33128;51.580;5.170;2023-04-09T04:05:40;31.55;;;27.95;;
47381;SDS011;33128;51.580;5.170;2023-04-09T04:08:06;31.88;;;28.45;;
47381;SDS011;33128;51.580;5.170;2023-04-09T04:10:32;31.75;;;28.30;;
47381;SDS011;33128;51.580;5.170;2023-04-09T04:12:58;40.58;;;30.00;;
47381;SDS011;33128;51.580;5.170;2023-04-09T04:15:26;31.83;;;28.17;;
47381;SDS011;33128;51.580;5.170;2023-04-09T04:17:51;41.53;;;29.95;;
47381;SDS011;33128;51.580;5.170;2023-04-09T04:20:17;34.17;;;29.05;;
47381;SDS011;33128;51.580;5.170;2023-04-09T04:22:46;31.45;;;28.48;;
47381;SDS011;33128;51.580;5.170;2023-04-09T04:25:11;34.03;;;29.77;;
47381;SDS011;33128;51.580;5.170;2023-04-09T04:27:40;34.58;;;30.88;;
47381;SDS011;33128;51.580;5.170;2023-04-09T04:30:06;38.15;;;30.70;;
47381;SDS011;33128;51.580;5.170;2023-04-09T04:32:32;32.95;;;29.13;;
47381;SDS011;33128;51.580;5.170;2023-04-09T04:34:58;34.17;;;30.85;;
47381;SDS011;33128;51.580;5.170;2023-04-09T04:37:23;35.72;;;29.95;;
47381;SDS011;33128;51.580;5.170;2023-04-09T04:39:49;38.90;;;32.45;;
47381;SDS011;33128;51.580;5.170;2023-04-09T04:42:15;42.47;;;31.75;;
47381;SDS011;33128;51.580;5.170;2023-04-09T04:44:41;38.88;;;33.45;;
47381;SDS011;33128;51.580;5.170;2023-04-09T04:47:07;32.92;;;29.48;;
47381;SDS011;33128;51.580;5.170;2023-04-09T04:49:33;35.67;;;31.52;;
47381;SDS011;33128;51.580;5.170;2023-04-09T04:51:59;37.95;;;29.75;;
47381;SDS011;33128;51.580;5.170;2023-04-09T04:54:24;33.47;;;30.13;;
47381;SDS011;33128;51.580;5.170;2023-04-09T04:56:50;34.28;;;30.05;;
47381;SDS011;33128;51.580;5.170;2023-04-09T04:59:16;40.17;;;30.60;;
47381;SDS011;33128;51.580;5.170;2023-04-09T05:01:41;38.08;;;30.80;;
47381;SDS011;33128;51.580;5.170;2023-04-09T05:04:07;35.45;;;29.90;;
47381;SDS011;33128;51.580;5.170;2023-04-09T05:06:32;37.95;;;29.95;;
47381;SDS011;33128;51.580;5.170;2023-04-09T05:09:00;40.60;;;28.58;;
47381;SDS011;33128;51.580;5.170;2023-04-09T05:11:26;35.58;;;31.38;;
47381;SDS011;33128;51.580;5.170;2023-04-09T05:13:52;36.05;;;28.58;;
47381;SDS011;33128;51.580;5.170;2023-04-09T05:16:18;32.85;;;28.33;;
47381;SDS011;33128;51.580;5.170;2023-04-09T05:18:45;30.63;;;27.17;;
47381;SDS011;33128;51.580;5.170;2023-04-09T05:21:11;32.60;;;27.13;;
47381;SDS011;33128;51.580;5.170;2023-04-09T05:23:40;36.67;;;28.30;;
47381;SDS011;33128;51.580;5.170;2023-04-09T05:26:06;29.63;;;25.83;;
47381;SDS011;33128;51.580;5.170;2023-04-09T05:28:32;32.65;;;26.58;;
47381;SDS011;33128;51.580;5.170;2023-04-09T05:30:57;30.77;;;26.15;;
47381;SDS011;33128;51.580;5.170;2023-04-09T05:33:23;36.00;;;27.40;;
47381;SDS011;33128;51.580;5.170;2023-04-09T05:35:49;32.63;;;27.20;;
47381;SDS011;33128;51.580;5.170;2023-04-09T05:38:14;30.63;;;27.20;;
47381;SDS011;33128;51.580;5.170;2023-04-09T05:40:40;30.98;;;25.13;;
47381;SDS011;33128;51.580;5.170;2023-04-09T05:43:08;30.20;;;24.65;;
47381;SDS011;33128;51.580;5.170;2023-04-09T05:45:33;37.65;;;26.08;;
47381;SDS011;33128;51.580;5.170;2023-04-09T05:48:00;28.90;;;24.92;;
47381;SDS011;33128;51.580;5.170;2023-04-09T05:50:25;27.40;;;24.55;;
47381;SDS011;33128;51.580;5.170;2023-04-09T05:52:51;27.50;;;23.70;;
47381;SDS011;33128;51.580;5.170;2023-04-09T05:55:16;31.25;;;24.40;;
47381;SDS011;33128;51.580;5.170;2023-04-09T05:57:42;32.08;;;23.77;;
47381;SDS011;33128;51.580;5.170;2023-04-09T06:00:09;38.08;;;25.02;;
47381;SDS011;33128;51.580;5.170;2023-04-09T06:02:35;28.95;;;25.52;;
47381;SDS011;33128;51.580;5.170;2023-04-09T06:05:01;32.60;;;25.63;;
47381;SDS011;33128;51.580;5.170;2023-04-09T06:07:26;30.13;;;24.48;;
47381;SDS011;33128;51.580;5.170;2023-04-09T06:09:53;29.65;;;22.45;;
47381;SDS011;33128;51.580;5.170;2023-04-09T06:12:19;36.42;;;24.58;;
47381;SDS011;33128;51.580;5.170;2023-04-09T06:14:46;29.98;;;25.17;;
47381;SDS011;33128;51.580;5.170;2023-04-09T06:17:12;39.15;;;25.33;;
47381;SDS011;33128;51.580;5.170;2023-04-09T06:19:41;26.52;;;23.75;;
47381;SDS011;33128;51.580;5.170;2023-04-09T06:22:10;28.63;;;25.75;;
47381;SDS011;33128;51.580;5.170;2023-04-09T06:24:36;28.02;;;24.10;;
47381;SDS011;33128;51.580;5.170;2023-04-09T06:27:01;28.50;;;24.23;;
47381;SDS011;33128;51.580;5.170;2023-04-09T06:29:27;28.80;;;22.75;;
47381;SDS011;33128;51.580;5.170;2023-04-09T06:31:53;32.92;;;23.10;;
47381;SDS011;33128;51.580;5.170;2023-04-09T06:34:19;33.25;;;24.65;;
47381;SDS011;33128;51.580;5.170;2023-04-09T06:36:44;32.58;;;25.00;;
47381;SDS011;33128;51.580;5.170;2023-04-09T06:39:10;30.45;;;23.90;;
47381;SDS011;33128;51.580;5.170;2023-04-09T06:41:36;26.10;;;23.30;;
47381;SDS011;33128;51.580;5.170;2023-04-09T06:44:01;33.15;;;23.95;;
47381;SDS011;33128;51.580;5.170;2023-04-09T06:46:27;26.60;;;23.58;;
47381;SDS011;33128;51.580;5.170;2023-04-09T06:48:52;27.63;;;24.23;;
47381;SDS011;33128;51.580;5.170;2023-04-09T06:51:18;24.67;;;21.55;;
47381;SDS011;33128;51.580;5.170;2023-04-09T06:53:44;32.90;;;22.38;;
47381;SDS011;33128;51.580;5.170;2023-04-09T06:56:11;30.45;;;23.23;;
47381;SDS011;33128;51.580;5.170;2023-04-09T06:58:37;29.77;;;22.48;;
47381;SDS011;33128;51.580;5.170;2023-04-09T07:01:03;30.80;;;23.92;;
47381;SDS011;33128;51.580;5.170;2023-04-09T07:03:29;27.98;;;24.25;;
47381;SDS011;33128;51.580;5.170;2023-04-09T07:05:54;27.90;;;24.13;;
47381;SDS011;33128;51.580;5.170;2023-04-09T07:08:21;26.17;;;23.50;;
47381;SDS011;33128;51.580;5.170;2023-04-09T07:10:47;28.05;;;22.35;;
47381;SDS011;33128;51.580;5.170;2023-04-09T07:13:13;32.90;;;23.77;;
47381;SDS011;33128;51.580;5.170;2023-04-09T07:15:38;25.38;;;21.25;;
47381;SDS011;33128;51.580;5.170;2023-04-09T07:18:04;28.83;;;24.35;;
47381;SDS011;33128;51.580;5.170;2023-04-09T07:20:30;34.30;;;25.40;;
47381;SDS011;33128;51.580;5.170;2023-04-09T07:22:56;27.63;;;23.63;;
47381;SDS011;33128;51.580;5.170;2023-04-09T07:25:21;26.05;;;22.83;;
47381;SDS011;33128;51.580;5.170;2023-04-09T07:27:47;32.80;;;25.67;;
47381;SDS011;33128;51.580;5.170;2023-04-09T07:30:13;33.13;;;23.23;;
47381;SDS011;33128;51.580;5.170;2023-04-09T07:32:39;30.08;;;25.05;;
47381;SDS011;33128;51.580;5.170;2023-04-09T07:35:06;27.10;;;22.67;;
47381;SDS011;33128;51.580;5.170;2023-04-09T07:37:35;25.85;;;22.60;;
47381;SDS011;33128;51.580;5.170;2023-04-09T07:40:01;27.85;;;21.95;;
47381;SDS011;33128;51.580;5.170;2023-04-09T07:42:30;26.55;;;23.73;;
47381;SDS011;33128;51.580;5.170;2023-04-09T07:44:55;31.98;;;23.88;;
47381;SDS011;33128;51.580;5.170;2023-04-09T07:47:23;26.17;;;21.83;;
47381;SDS011;33128;51.580;5.170;2023-04-09T07:49:49;33.63;;;24.92;;
47381;SDS011;33128;51.580;5.170;2023-04-09T07:52:15;28.45;;;24.45;;
47381;SDS011;33128;51.580;5.170;2023-04-09T07:54:40;27.52;;;24.67;;
47381;SDS011;33128;51.580;5.170;2023-04-09T07:57:06;26.35;;;22.17;;
47381;SDS011;33128;51.580;5.170;2023-04-09T07:59:33;29.65;;;24.50;;
47381;SDS011;33128;51.580;5.170;2023-04-09T08:01:59;32.05;;;23.50;;
47381;SDS011;33128;51.580;5.170;2023-04-09T08:04:24;33.92;;;24.60;;
47381;SDS011;33128;51.580;5.170;2023-04-09T08:06:51;31.23;;;23.35;;
47381;SDS011;33128;51.580;5.170;2023-04-09T08:09:17;29.58;;;22.90;;
47381;SDS011;33128;51.580;5.170;2023-04-09T08:11:47;27.42;;;24.45;;
47381;SDS011;33128;51.580;5.170;2023-04-09T08:14:13;32.83;;;24.70;;
47381;SDS011;33128;51.580;5.170;2023-04-09T08:16:41;27.33;;;23.95;;
47381;SDS011;33128;51.580;5.170;2023-04-09T08:19:09;24.88;;;22.40;;
47381;SDS011;33128;51.580;5.170;2023-04-09T08:21:38;27.10;;;24.00;;
47381;SDS011;33128;51.580;5.170;2023-04-09T08:24:07;30.10;;;23.65;;
47381;SDS011;33128;51.580;5.170;2023-04-09T08:26:35;28.40;;;24.40;;
47381;SDS011;33128;51.580;5.170;2023-04-09T08:29:04;26.80;;;23.98;;
47381;SDS011;33128;51.580;5.170;2023-04-09T08:31:31;28.20;;;23.10;;
47381;SDS011;33128;51.580;5.170;2023-04-09T08:33:56;25.00;;;22.40;;
47381;SDS011;33128;51.580;5.170;2023-04-09T08:36:25;27.90;;;23.20;;
47381;SDS011;33128;51.580;5.170;2023-04-09T08:38:51;22.20;;;20.00;;
47381;SDS011;33128;51.580;5.170;2023-04-09T08:41:19;20.85;;;18.80;;
47381;SDS011;33128;51.580;5.170;2023-04-09T08:43:50;22.52;;;19.17;;
47381;SDS011;33128;51.580;5.170;2023-04-09T08:46:17;20.92;;;18.85;;
47381;SDS011;33128;51.580;5.170;2023-04-09T08:48:47;21.08;;;18.95;;
47381;SDS011;33128;51.580;5.170;2023-04-09T08:51:20;20.08;;;18.17;;
47381;SDS011;33128;51.580;5.170;2023-04-09T08:53:47;20.02;;;18.33;;
47381;SDS011;33128;51.580;5.170;2023-04-09T08:56:17;19.75;;;17.63;;
47381;SDS011;33128;51.580;5.170;2023-04-09T08:58:44;19.73;;;18.02;;
47381;SDS011;33128;51.580;5.170;2023-04-09T09:06:34;19.35;;;17.67;;
47381;SDS011;33128;51.580;5.170;2023-04-09T09:11:39;18.63;;;17.05;;
47381;SDS011;33128;51.580;5.170;2023-04-09T09:14:12;19.33;;;17.60;;
47381;SDS011;33128;51.580;5.170;2023-04-09T09:16:42;19.20;;;17.60;;
47381;SDS011;33128;51.580;5.170;2023-04-09T09:21:55;18.42;;;17.00;;
47381;SDS011;33128;51.580;5.170;2023-04-09T09:24:24;18.70;;;17.08;;
47381;SDS011;33128;51.580;5.170;2023-04-09T09:26:50;19.70;;;17.83;;
47381;SDS011;33128;51.580;5.170;2023-04-09T09:29:18;18.25;;;16.88;;
47381;SDS011;33128;51.580;5.170;2023-04-09T09:31:48;17.67;;;16.33;;
47381;SDS011;33128;51.580;5.170;2023-04-09T09:34:15;17.73;;;16.50;;
47381;SDS011;33128;51.580;5.170;2023-04-09T09:36:41;16.95;;;15.50;;
47381;SDS011;33128;51.580;5.170;2023-04-09T09:39:08;16.95;;;15.55;;
47381;SDS011;33128;51.580;5.170;2023-04-09T09:41:34;16.48;;;15.20;;
47381;SDS011;33128;51.580;5.170;2023-04-09T09:44:00;17.88;;;16.05;;
47381;SDS011;33128;51.580;5.170;2023-04-09T09:46:27;17.80;;;16.30;;
47381;SDS011;33128;51.580;5.170;2023-04-09T09:48:58;17.45;;;15.88;;
47381;SDS011;33128;51.580;5.170;2023-04-09T09:51:24;16.83;;;15.63;;
47381;SDS011;33128;51.580;5.170;2023-04-09T09:53:54;17.48;;;16.17;;
47381;SDS011;33128;51.580;5.170;2023-04-09T09:56:22;18.25;;;16.15;;
47381;SDS011;33128;51.580;5.170;2023-04-09T10:01:40;18.45;;;16.88;;
47381;SDS011;33128;51.580;5.170;2023-04-09T10:04:11;17.67;;;16.20;;
47381;SDS011;33128;51.580;5.170;2023-04-09T10:06:39;17.67;;;16.38;;
47381;SDS011;33128;51.580;5.170;2023-04-09T10:09:08;17.50;;;16.00;;
47381;SDS011;33128;51.580;5.170;2023-04-09T10:11:35;17.25;;;15.90;;
47381;SDS011;33128;51.580;5.170;2023-04-09T10:14:01;16.73;;;15.45;;
47381;SDS011;33128;51.580;5.170;2023-04-09T10:16:27;17.83;;;16.35;;
47381;SDS011;33128;51.580;5.170;2023-04-09T10:18:56;18.25;;;16.65;;
47381;SDS011;33128;51.580;5.170;2023-04-09T10:24:12;17.70;;;16.50;;
47381;SDS011;33128;51.580;5.170;2023-04-09T10:26:40;17.80;;;16.42;;
47381;SDS011;33128;51.580;5.170;2023-04-09T10:29:09;18.02;;;16.52;;
47381;SDS011;33128;51.580;5.170;2023-04-09T10:31:52;16.67;;;15.50;;
47381;SDS011;33128;51.580;5.170;2023-04-09T10:34:22;17.92;;;16.30;;
47381;SDS011;33128;51.580;5.170;2023-04-09T10:36:54;17.58;;;16.15;;
47381;SDS011;33128;51.580;5.170;2023-04-09T10:39:29;16.58;;;15.27;;
47381;SDS011;33128;51.580;5.170;2023-04-09T10:42:02;16.95;;;15.65;;
47381;SDS011;33128;51.580;5.170;2023-04-09T10:44:33;17.80;;;16.17;;
47381;SDS011;33128;51.580;5.170;2023-04-09T10:47:00;16.42;;;15.23;;
47381;SDS011;33128;51.580;5.170;2023-04-09T10:49:31;18.77;;;17.42;;
47381;SDS011;33128;51.580;5.170;2023-04-09T10:52:04;17.48;;;16.27;;
47381;SDS011;33128;51.580;5.170;2023-04-09T10:54:36;17.77;;;16.58;;
47381;SDS011;33128;51.580;5.170;2023-04-09T10:59:35;17.27;;;16.08;;
47381;SDS011;33128;51.580;5.170;2023-04-09T11:02:02;16.90;;;15.55;;
47381;SDS011;33128;51.580;5.170;2023-04-09T11:05:06;18.25;;;16.85;;
47381;SDS011;33128;51.580;5.170;2023-04-09T11:07:24;17.17;;;15.98;;
47381;SDS011;33128;51.580;5.170;2023-04-09T11:09:51;17.55;;;16.17;;
47381;SDS011;33128;51.580;5.170;2023-04-09T11:12:17;17.38;;;16.08;;
47381;SDS011;33128;51.580;5.170;2023-04-09T11:14:43;17.58;;;16.27;;
47381;SDS011;33128;51.580;5.170;2023-04-09T11:17:09;17.00;;;15.75;;
47381;SDS011;33128;51.580;5.170;2023-04-09T11:19:35;17.63;;;16.20;;
47381;SDS011;33128;51.580;5.170;2023-04-09T11:22:03;17.92;;;16.63;;
47381;SDS011;33128;51.580;5.170;2023-04-09T11:24:40;18.15;;;16.70;;
47381;SDS011;33128;51.580;5.170;2023-04-09T11:27:06;16.60;;;15.50;;
47381;SDS011;33128;51.580;5.170;2023-04-09T11:29:33;17.48;;;16.17;;
47381;SDS011;33128;51.580;5.170;2023-04-09T11:32:00;17.48;;;16.08;;
47381;SDS011;33128;51.580;5.170;2023-04-09T11:34:26;17.58;;;16.45;;
47381;SDS011;33128;51.580;5.170;2023-04-09T11:36:52;16.45;;;15.27;;
47381;SDS011;33128;51.580;5.170;2023-04-09T11:39:18;16.98;;;15.63;;
47381;SDS011;33128;51.580;5.170;2023-04-09T11:41:44;15.57;;;14.48;;
47381;SDS011;33128;51.580;5.170;2023-04-09T11:44:10;16.58;;;15.27;;
47381;SDS011;33128;51.580;5.170;2023-04-09T11:46:37;16.08;;;15.07;;
47381;SDS011;33128;51.580;5.170;2023-04-09T11:49:02;16.45;;;15.30;;
47381;SDS011;33128;51.580;5.170;2023-04-09T11:51:28;16.73;;;15.35;;
47381;SDS011;33128;51.580;5.170;2023-04-09T11:53:56;15.77;;;14.77;;
47381;SDS011;33128;51.580;5.170;2023-04-09T11:56:28;15.65;;;14.65;;
47381;SDS011;33128;51.580;5.170;2023-04-09T11:58:55;15.13;;;14.02;;
47381;SDS011;33128;51.580;5.170;2023-04-09T12:01:20;15.82;;;14.63;;
47381;SDS011;33128;51.580;5.170;2023-04-09T12:03:53;15.65;;;14.45;;
47381;SDS011;33128;51.580;5.170;2023-04-09T12:06:19;16.23;;;15.02;;
47381;SDS011;33128;51.580;5.170;2023-04-09T12:08:47;15.90;;;14.68;;
47381;SDS011;33128;51.580;5.170;2023-04-09T12:11:19;15.32;;;14.32;;
47381;SDS011;33128;51.580;5.170;2023-04-09T12:13:58;15.20;;;14.10;;
47381;SDS011;33128;51.580;5.170;2023-04-09T12:16:28;15.65;;;14.48;;
47381;SDS011;33128;51.580;5.170;2023-04-09T12:19:04;16.35;;;15.30;;
47381;SDS011;33128;51.580;5.170;2023-04-09T12:24:20;15.05;;;14.07;;
47381;SDS011;33128;51.580;5.170;2023-04-09T12:26:48;14.93;;;13.90;;
47381;SDS011;33128;51.580;5.170;2023-04-09T12:29:14;14.75;;;13.82;;
47381;SDS011;33128;51.580;5.170;2023-04-09T12:31:42;14.77;;;13.88;;
47381;SDS011;33128;51.580;5.170;2023-04-09T12:34:08;14.10;;;13.10;;
47381;SDS011;33128;51.580;5.170;2023-04-09T12:36:34;15.07;;;14.10;;
47381;SDS011;33128;51.580;5.170;2023-04-09T12:39:00;15.38;;;14.18;;
47381;SDS011;33128;51.580;5.170;2023-04-09T12:41:25;14.10;;;13.23;;
47381;SDS011;33128;51.580;5.170;2023-04-09T12:43:51;14.93;;;13.93;;
47381;SDS011;33128;51.580;5.170;2023-04-09T12:46:17;13.93;;;13.13;;
47381;SDS011;33128;51.580;5.170;2023-04-09T12:48:43;15.05;;;14.07;;
47381;SDS011;33128;51.580;5.170;2023-04-09T12:51:09;15.00;;;14.05;;
47381;SDS011;33128;51.580;5.170;2023-04-09T12:53:35;14.50;;;13.57;;
47381;SDS011;33128;51.580;5.170;2023-04-09T12:56:01;13.77;;;12.98;;
47381;SDS011;33128;51.580;5.170;2023-04-09T12:58:27;13.95;;;12.85;;
47381;SDS011;33128;51.580;5.170;2023-04-09T13:00:53;14.00;;;13.13;;
47381;SDS011;33128;51.580;5.170;2023-04-09T13:03:20;13.82;;;12.90;;
47381;SDS011;33128;51.580;5.170;2023-04-09T13:05:47;13.90;;;13.10;;
47381;SDS011;33128;51.580;5.170;2023-04-09T13:08:12;14.05;;;13.20;;
47381;SDS011;33128;51.580;5.170;2023-04-09T13:10:38;13.80;;;12.80;;
47381;SDS011;33128;51.580;5.170;2023-04-09T13:13:04;14.20;;;13.30;;
47381;SDS011;33128;51.580;5.170;2023-04-09T13:15:42;13.30;;;12.50;;
47381;SDS011;33128;51.580;5.170;2023-04-09T13:18:08;13.70;;;12.90;;
47381;SDS011;33128;51.580;5.170;2023-04-09T13:20:37;13.85;;;12.95;;
47381;SDS011;33128;51.580;5.170;2023-04-09T13:23:03;13.75;;;12.93;;
47381;SDS011;33128;51.580;5.170;2023-04-09T13:25:28;13.80;;;12.90;;
47381;SDS011;33128;51.580;5.170;2023-04-09T13:27:54;14.05;;;13.25;;
47381;SDS011;33128;51.580;5.170;2023-04-09T13:30:20;13.02;;;12.23;;
47381;SDS011;33128;51.580;5.170;2023-04-09T13:32:46;13.82;;;12.82;;
47381;SDS011;33128;51.580;5.170;2023-04-09T13:35:12;14.25;;;13.35;;
47381;SDS011;33128;51.580;5.170;2023-04-09T13:37:38;13.10;;;12.30;;
47381;SDS011;33128;51.580;5.170;2023-04-09T13:40:04;14.43;;;13.52;;
47381;SDS011;33128;51.580;5.170;2023-04-09T13:42:30;13.65;;;12.75;;
47381;SDS011;33128;51.580;5.170;2023-04-09T13:44:56;13.88;;;12.88;;
47381;SDS011;33128;51.580;5.170;2023-04-09T13:47:22;13.52;;;12.63;;
47381;SDS011;33128;51.580;5.170;2023-04-09T13:49:48;14.52;;;13.43;;
47381;SDS011;33128;51.580;5.170;2023-04-09T13:52:15;14.07;;;13.05;;
47381;SDS011;33128;51.580;5.170;2023-04-09T13:54:41;13.48;;;12.60;;
47381;SDS011;33128;51.580;5.170;2023-04-09T13:57:10;12.98;;;12.32;;
47381;SDS011;33128;51.580;5.170;2023-04-09T13:59:35;13.32;;;12.52;;
47381;SDS011;33128;51.580;5.170;2023-04-09T14:02:02;13.15;;;12.35;;
47381;SDS011;33128;51.580;5.170;2023-04-09T14:04:28;12.98;;;12.18;;
47381;SDS011;33128;51.580;5.170;2023-04-09T14:06:59;13.32;;;12.43;;
47381;SDS011;33128;51.580;5.170;2023-04-09T14:09:25;13.25;;;12.43;;
47381;SDS011;33128;51.580;5.170;2023-04-09T14:11:50;13.02;;;12.23;;
47381;SDS011;33128;51.580;5.170;2023-04-09T14:14:18;13.68;;;12.77;;
47381;SDS011;33128;51.580;5.170;2023-04-09T14:16:43;13.77;;;12.93;;
47381;SDS011;33128;51.580;5.170;2023-04-09T14:19:10;12.63;;;11.82;;
47381;SDS011;33128;51.580;5.170;2023-04-09T14:21:36;12.15;;;11.40;;
47381;SDS011;33128;51.580;5.170;2023-04-09T14:24:02;13.93;;;13.23;;
47381;SDS011;33128;51.580;5.170;2023-04-09T14:26:28;13.05;;;12.20;;
47381;SDS011;33128;51.580;5.170;2023-04-09T14:28:54;12.30;;;11.60;;
47381;SDS011;33128;51.580;5.170;2023-04-09T14:31:19;12.65;;;11.93;;
47381;SDS011;33128;51.580;5.170;2023-04-09T14:33:45;13.68;;;12.88;;
47381;SDS011;33128;51.580;5.170;2023-04-09T14:36:11;12.98;;;12.10;;
47381;SDS011;33128;51.580;5.170;2023-04-09T14:38:37;12.23;;;11.43;;
47381;SDS011;33128;51.580;5.170;2023-04-09T14:41:03;12.10;;;11.40;;
47381;SDS011;33128;51.580;5.170;2023-04-09T14:43:29;11.90;;;11.13;;
47381;SDS011;33128;51.580;5.170;2023-04-09T14:45:54;10.80;;;10.30;;
47381;SDS011;33128;51.580;5.170;2023-04-09T14:48:20;11.73;;;11.02;;
47381;SDS011;33128;51.580;5.170;2023-04-09T14:50:46;12.95;;;12.15;;